Time;durP1;ratioP1;P1;durP2;ratioP2;P2;SDS_P1;SDS_P2;PMS_P1;PMS_P2;Temp;Humidity;BMP_temperature;BMP_pressure;BME280_temperature;BME280_humidity;BME280_pressure;Samples;Min_cycle;Max_cycle;Signal;HPM_P1;HPM_P2
2022/12/23 00:00:35;;;;;;;115.68;30.85;;;8.10;99.90;;;;;;4995303;28;20109;-81
2022/12/23 00:03:00;;;;;;;101.80;28.75;;;8.10;99.90;;;;;;4979198;28;20049;-81
2022/12/23 00:05:26;;;;;;;114.30;31.20;;;8.10;99.90;;;;;;5013050;28;20041;-81
2022/12/23 00:07:52;;;;;;;118.72;31.45;;;8.10;99.90;;;;;;4995256;28;20045;-80
2022/12/23 00:10:18;;;;;;;96.80;29.45;;;8.10;99.90;;;;;;4995385;28;20155;-81
2022/12/23 00:15:27;;;;;;;88.45;27.38;;;8.10;99.90;;;;;;4985026;28;20136;-80
2022/12/23 00:17:53;;;;;;;89.57;27.13;;;8.10;99.90;;;;;;4995549;28;20137;-81
2022/12/23 00:20:19;;;;;;;95.70;27.90;;;8.10;99.90;;;;;;4998928;28;20177;-80
2022/12/23 00:25:39;;;;;;;127.15;29.58;;;8.10;99.90;;;;;;4998771;28;20050;-80
2022/12/23 00:28:20;;;;;;;167.60;28.13;;;8.10;99.90;;;;;;4998857;28;20496;-81
2022/12/23 00:31:03;;;;;;;207.90;29.33;;;8.10;99.90;;;;;;4982100;28;20107;-80
2022/12/23 00:33:31;;;;;;;90.70;26.95;;;8.10;99.90;;;;;;4982235;28;20053;-81
2022/12/23 00:35:58;;;;;;;81.18;26.38;;;8.10;99.90;;;;;;4982090;28;20046;-80
2022/12/23 00:43:59;;;;;;;99.05;28.85;;;8.10;99.90;;;;;;4998492;28;20058;-80
2022/12/23 00:46:25;;;;;;;131.85;31.98;;;8.10;99.90;;;;;;4998332;28;20144;-80
2022/12/23 00:51:35;;;;;;;117.93;32.00;;;8.10;99.90;;;;;;4998174;28;20484;-79
2022/12/23 00:54:02;;;;;;;112.55;30.23;;;8.10;99.90;;;;;;4998263;28;20396;-79
2022/12/23 00:56:28;;;;;;;131.93;30.25;;;8.10;99.90;;;;;;4981830;28;20081;-79
2022/12/23 00:58:53;;;;;;;132.27;31.35;;;8.10;99.90;;;;;;4981982;28;20081;-80
2022/12/23 01:06:47;;;;;;;132.00;31.02;;;8.00;99.90;;;;;;4998159;28;20073;-81
2022/12/23 01:09:13;;;;;;;149.95;32.53;;;8.00;99.90;;;;;;4966276;28;20428;-80
2022/12/23 01:11:39;;;;;;;92.43;28.80;;;8.00;99.90;;;;;;4998209;28;20038;-80
2022/12/23 01:14:08;;;;;;;107.97;28.80;;;8.10;99.90;;;;;;4997904;28;20053;-80
2022/12/23 01:16:37;;;;;;;108.35;28.25;;;8.00;99.90;;;;;;5000602;28;20556;-81
2022/12/23 01:19:04;;;;;;;113.00;28.88;;;8.00;99.90;;;;;;5014562;28;20054;-80
2022/12/23 01:21:29;;;;;;;109.68;28.70;;;8.00;99.90;;;;;;4997831;28;20038;-80
2022/12/23 01:23:55;;;;;;;152.27;31.00;;;8.00;99.90;;;;;;4997651;28;20143;-80
2022/12/23 01:26:21;;;;;;;97.75;27.85;;;8.00;99.90;;;;;;5013283;28;20053;-79
2022/12/23 01:28:46;;;;;;;124.47;30.95;;;8.00;99.90;;;;;;4997867;28;20045;-80
2022/12/23 01:31:12;;;;;;;123.75;29.08;;;7.90;99.90;;;;;;4997754;28;20046;-81
2022/12/23 01:33:38;;;;;;;110.53;29.02;;;8.00;99.90;;;;;;4997861;28;20089;-81
2022/12/23 01:36:06;;;;;;;100.18;28.63;;;7.90;99.90;;;;;;4997862;28;20053;-80
2022/12/23 01:38:33;;;;;;;93.30;28.83;;;7.90;99.90;;;;;;4997863;28;20469;-81
2022/12/23 01:40:59;;;;;;;98.38;27.45;;;7.90;99.90;;;;;;4997128;28;20056;-80
2022/12/23 01:43:45;;;;;;;100.22;28.20;;;7.90;99.90;;;;;;4981468;28;20046;-80
2022/12/23 01:46:11;;;;;;;102.95;29.13;;;7.90;99.90;;;;;;4997796;28;20042;-81
2022/12/23 01:48:37;;;;;;;104.13;27.98;;;7.90;99.90;;;;;;4997771;28;20038;-80
2022/12/23 01:51:20;;;;;;;96.82;28.48;;;7.90;99.90;;;;;;4996959;28;20053;-80
2022/12/23 01:53:53;;;;;;;95.03;29.08;;;7.90;99.90;;;;;;4996875;28;20050;-80
2022/12/23 01:56:25;;;;;;;97.13;27.77;;;7.90;99.90;;;;;;4997388;28;20076;-80
2022/12/23 01:58:56;;;;;;;92.68;28.02;;;7.90;99.90;;;;;;4997416;28;20050;-80
2022/12/23 02:04:10;;;;;;;96.22;27.50;;;7.90;99.90;;;;;;4986013;28;20054;-79
2022/12/23 02:09:28;;;;;;;87.93;26.50;;;8.00;99.90;;;;;;4999573;28;20092;-80
2022/12/23 02:11:59;;;;;;;96.05;25.45;;;8.00;99.90;;;;;;5013252;28;20050;-79
2022/12/23 02:18:14;;;;;;;79.90;24.27;;;7.90;99.90;;;;;;5012780;28;20057;-80
2022/12/23 02:21:10;;;;;;;98.57;26.23;;;7.90;99.90;;;;;;5013436;28;20058;-79
2022/12/23 02:23:47;;;;;;;90.63;26.58;;;7.90;99.90;;;;;;5013200;28;20046;-79
2022/12/23 02:26:28;;;;;;;112.60;28.25;;;7.90;99.90;;;;;;4997201;28;20155;-79
2022/12/23 02:29:31;;;;;;;106.47;28.85;;;7.90;99.90;;;;;;5013028;28;20503;-79
2022/12/23 02:32:11;;;;;;;106.32;27.42;;;7.90;99.90;;;;;;5012925;28;20050;-79
2022/12/23 02:34:56;;;;;;;125.15;29.63;;;7.90;99.90;;;;;;4996075;28;20045;-80
2022/12/23 02:37:58;;;;;;;112.95;29.02;;;7.90;99.90;;;;;;4996041;28;20077;-79
2022/12/23 02:40:57;;;;;;;108.88;28.00;;;8.00;99.90;;;;;;4999669;28;20105;-79
2022/12/23 02:43:35;;;;;;;104.22;28.30;;;8.00;99.90;;;;;;5011133;28;20057;-80
2022/12/23 02:46:27;;;;;;;114.18;29.88;;;8.00;99.90;;;;;;5012454;28;20042;-80
2022/12/23 02:49:07;;;;;;;126.22;28.95;;;8.00;99.90;;;;;;4979017;28;20078;-79
2022/12/23 02:51:38;;;;;;;128.02;30.00;;;8.00;99.90;;;;;;5012744;28;20046;-79
2022/12/23 02:54:08;;;;;;;106.70;28.13;;;7.90;99.90;;;;;;4996214;28;20050;-80
2022/12/23 02:56:38;;;;;;;120.57;27.75;;;8.00;99.90;;;;;;4996203;28;20468;-80
2022/12/23 02:59:39;;;;;;;116.20;29.60;;;8.00;99.90;;;;;;5012578;28;20056;-80
2022/12/23 03:02:05;;;;;;;107.38;29.15;;;7.90;99.90;;;;;;4961637;28;20072;-80
2022/12/23 03:04:31;;;;;;;129.18;30.88;;;7.90;99.90;;;;;;5012385;28;20128;-79
2022/12/23 03:06:58;;;;;;;127.55;29.52;;;7.90;99.90;;;;;;5012104;28;20045;-79
2022/12/23 03:09:34;;;;;;;120.95;29.80;;;7.90;99.90;;;;;;4996337;28;20056;-79
2022/12/23 03:12:31;;;;;;;112.80;30.42;;;7.90;99.90;;;;;;5012463;28;20404;-80
2022/12/23 03:15:09;;;;;;;151.07;31.13;;;8.00;99.90;;;;;;4995893;28;20042;-79
2022/12/23 03:18:05;;;;;;;103.75;27.08;;;7.90;99.90;;;;;;4995378;28;20526;-79
2022/12/23 03:20:40;;;;;;;109.53;27.52;;;7.90;99.90;;;;;;4996090;28;20096;-79
2022/12/23 03:23:26;;;;;;;114.75;29.90;;;7.90;99.90;;;;;;4995799;28;20160;-79
2022/12/23 03:26:15;;;;;;;121.50;29.70;;;7.90;99.90;;;;;;5012141;28;20046;-80
2022/12/23 03:28:53;;;;;;;113.63;29.33;;;8.00;99.90;;;;;;4994813;28;20121;-79
2022/12/23 03:31:24;;;;;;;128.82;29.30;;;8.00;99.90;;;;;;5012998;28;20488;-79
2022/12/23 03:33:58;;;;;;;131.15;29.45;;;8.00;99.90;;;;;;4979059;28;20050;-79
2022/12/23 03:36:28;;;;;;;129.93;28.90;;;8.00;99.90;;;;;;4995765;28;20132;-79
2022/12/23 03:38:55;;;;;;;134.48;30.48;;;8.00;99.90;;;;;;4996201;28;20103;-79
2022/12/23 03:41:36;;;;;;;138.38;29.80;;;8.00;99.90;;;;;;4979215;28;20057;-80
2022/12/23 03:44:14;;;;;;;134.88;30.35;;;8.00;99.90;;;;;;4995297;28;20054;-79
2022/12/23 03:46:47;;;;;;;129.13;31.00;;;8.00;99.90;;;;;;4995823;28;20046;-80
2022/12/23 03:49:27;;;;;;;148.35;31.02;;;8.00;99.90;;;;;;4981354;28;20120;-80
2022/12/23 03:52:08;;;;;;;146.95;31.25;;;8.00;99.90;;;;;;4983495;28;20054;-80
2022/12/23 03:54:41;;;;;;;149.55;30.83;;;8.00;99.90;;;;;;4983055;28;20052;-80
2022/12/23 03:57:09;;;;;;;140.23;30.83;;;8.00;99.90;;;;;;4999326;28;20053;-80
2022/12/23 03:59:39;;;;;;;147.18;30.98;;;8.00;99.90;;;;;;4999443;28;20085;-80
2022/12/23 04:02:16;;;;;;;155.25;30.75;;;8.00;99.90;;;;;;4999053;28;20108;-80
2022/12/23 04:05:17;;;;;;;155.55;31.35;;;8.00;99.90;;;;;;4982974;28;20050;-80
2022/12/23 04:08:02;;;;;;;131.15;28.40;;;8.00;99.90;;;;;;4999118;28;20115;-79
2022/12/23 04:10:29;;;;;;;130.70;29.50;;;8.00;99.90;;;;;;4999101;28;20046;-79
2022/12/23 04:12:55;;;;;;;141.93;29.75;;;8.00;99.90;;;;;;4983051;28;20099;-79
2022/12/23 04:15:22;;;;;;;120.20;28.77;;;8.00;99.90;;;;;;4981802;28;20085;-79
2022/12/23 04:17:49;;;;;;;148.98;30.75;;;8.00;99.90;;;;;;4998536;28;20058;-80
2022/12/23 04:20:15;;;;;;;141.20;30.90;;;8.00;99.90;;;;;;4966470;28;20088;-80
2022/12/23 04:22:42;;;;;;;148.57;30.10;;;8.00;99.90;;;;;;4982956;28;20041;-80
2022/12/23 04:25:09;;;;;;;116.80;29.45;;;8.00;99.90;;;;;;4982456;28;20057;-80
2022/12/23 04:27:35;;;;;;;128.82;28.52;;;8.00;99.90;;;;;;4999168;28;20385;-80
2022/12/23 04:30:01;;;;;;;130.07;29.08;;;7.90;99.90;;;;;;4982803;28;20057;-80
2022/12/23 04:32:27;;;;;;;128.82;28.55;;;7.90;99.90;;;;;;4998660;28;20096;-80
2022/12/23 04:34:53;;;;;;;153.57;28.50;;;8.00;99.90;;;;;;4998624;28;20053;-80
2022/12/23 04:37:18;;;;;;;133.10;28.63;;;7.90;99.90;;;;;;4982185;28;20432;-80
2022/12/23 04:39:44;;;;;;;130.70;29.38;;;8.00;99.90;;;;;;4622199;28;9999809;-78
2022/12/23 04:42:10;;;;;;;131.13;28.63;;;7.90;99.90;;;;;;4944905;28;20408;-80
2022/12/23 04:44:36;;;;;;;117.80;27.55;;;7.90;99.90;;;;;;4993633;28;20112;-81
2022/12/23 04:47:01;;;;;;;136.27;26.98;;;8.00;99.90;;;;;;4960978;28;20044;-80
2022/12/23 04:49:27;;;;;;;140.88;29.45;;;7.90;99.90;;;;;;4992742;28;20126;-81
2022/12/23 04:51:53;;;;;;;122.68;27.23;;;7.90;99.90;;;;;;4992365;28;20046;-80
2022/12/23 04:54:18;;;;;;;118.10;25.10;;;7.90;99.90;;;;;;4976647;28;20050;-80
2022/12/23 04:56:44;;;;;;;120.78;26.15;;;7.90;99.90;;;;;;4960587;28;20801;-81
2022/12/23 04:59:10;;;;;;;121.70;26.38;;;7.90;99.90;;;;;;4960494;28;20077;-80
2022/12/23 05:01:36;;;;;;;145.82;28.38;;;7.90;99.90;;;;;;4975522;28;20129;-80
2022/12/23 05:04:01;;;;;;;153.45;28.17;;;7.90;99.90;;;;;;4944498;28;20053;-80
2022/12/23 05:06:27;;;;;;;123.45;25.25;;;7.90;99.90;;;;;;4976640;28;20129;-81
2022/12/23 05:08:53;;;;;;;128.50;27.35;;;7.80;99.90;;;;;;4994851;28;20064;-81
2022/12/23 05:11:18;;;;;;;121.78;24.67;;;7.80;99.90;;;;;;4979860;28;20100;-80
2022/12/23 05:13:44;;;;;;;105.35;25.60;;;7.80;99.90;;;;;;4979988;28;20381;-81
2022/12/23 05:16:10;;;;;;;107.68;25.08;;;7.80;99.90;;;;;;4978350;28;20129;-80
2022/12/23 05:18:36;;;;;;;113.13;25.90;;;7.70;99.90;;;;;;4997512;28;20148;-80
2022/12/23 05:21:01;;;;;;;115.38;24.20;;;7.70;99.90;;;;;;5014845;28;20052;-80
2022/12/23 05:23:27;;;;;;;124.22;25.42;;;7.70;99.90;;;;;;5015174;28;20049;-81
2022/12/23 05:25:53;;;;;;;109.20;24.08;;;7.70;99.90;;;;;;5015105;28;20053;-80
2022/12/23 05:28:20;;;;;;;125.13;24.52;;;7.70;99.90;;;;;;4981661;28;20053;-80
2022/12/23 05:30:46;;;;;;;106.28;22.35;;;7.70;99.90;;;;;;5017353;28;20077;-80
2022/12/23 05:33:12;;;;;;;90.30;20.20;;;7.60;99.90;;;;;;5000909;28;20525;-80
2022/12/23 05:35:38;;;;;;;93.47;22.25;;;7.60;99.90;;;;;;4984593;28;20041;-80
2022/12/23 05:38:03;;;;;;;89.40;22.05;;;7.60;99.90;;;;;;5017090;28;20673;-80
2022/12/23 05:40:30;;;;;;;105.90;22.42;;;7.60;99.90;;;;;;5000892;28;20049;-80
2022/12/23 05:42:55;;;;;;;97.38;21.98;;;7.60;99.90;;;;;;5000859;28;20054;-80
2022/12/23 05:45:21;;;;;;;94.45;20.40;;;7.60;99.90;;;;;;5000462;28;20045;-80
2022/12/23 05:47:47;;;;;;;113.60;22.55;;;7.60;99.90;;;;;;5000919;28;20080;-80
2022/12/23 05:50:13;;;;;;;95.85;20.15;;;7.60;99.90;;;;;;5000708;28;20392;-80
2022/12/23 05:52:39;;;;;;;91.85;20.45;;;7.60;99.90;;;;;;5016635;28;20052;-80
2022/12/23 05:55:05;;;;;;;80.38;19.40;;;7.50;99.90;;;;;;5016681;28;20091;-81
2022/12/23 05:57:31;;;;;;;90.90;19.55;;;7.50;99.90;;;;;;5000272;28;20053;-80
2022/12/23 05:59:57;;;;;;;87.63;18.85;;;7.40;99.90;;;;;;5016305;28;20446;-80
2022/12/23 06:02:23;;;;;;;86.38;18.80;;;7.40;99.90;;;;;;5000360;28;20041;-80
2022/12/23 06:04:49;;;;;;;103.55;18.17;;;7.40;99.90;;;;;;4999842;28;20096;-81
2022/12/23 06:07:15;;;;;;;95.07;17.48;;;7.40;99.90;;;;;;4984228;28;20050;-80
2022/12/23 06:09:41;;;;;;;84.65;20.10;;;7.30;99.90;;;;;;5016367;28;20049;-80
2022/12/23 06:12:07;;;;;;;98.90;21.00;;;7.30;99.90;;;;;;5016218;28;20056;-80
2022/12/23 06:14:33;;;;;;;94.93;21.33;;;7.40;99.90;;;;;;4983842;28;20107;-80
2022/12/23 06:16:59;;;;;;;102.53;22.25;;;7.40;99.90;;;;;;4996170;28;20079;-80
2022/12/23 06:19:25;;;;;;;106.85;22.10;;;7.40;99.90;;;;;;5012671;28;20504;-81
2022/12/23 06:21:51;;;;;;;129.48;24.58;;;7.50;99.90;;;;;;4996762;28;20504;-80
2022/12/23 06:24:17;;;;;;;117.78;22.52;;;7.50;99.90;;;;;;5013090;28;20081;-80
2022/12/23 06:26:42;;;;;;;138.32;23.25;;;7.50;99.90;;;;;;4980191;28;20140;-80
2022/12/23 06:29:09;;;;;;;151.70;22.20;;;7.60;99.90;;;;;;5012697;28;20395;-81
2022/12/23 06:31:35;;;;;;;194.10;24.38;;;7.40;99.90;;;;;;4996424;28;20056;-81
2022/12/23 06:34:01;;;;;;;215.02;24.70;;;7.30;99.90;;;;;;4996422;28;20058;-80
2022/12/23 06:36:26;;;;;;;134.00;23.40;;;7.20;99.90;;;;;;4996067;28;20077;-81
2022/12/23 06:38:52;;;;;;;200.23;25.17;;;7.10;99.90;;;;;;4996145;28;20480;-80
2022/12/23 06:41:18;;;;;;;515.88;34.88;;;7.10;99.90;;;;;;4996358;28;20057;-80
2022/12/23 06:43:43;;;;;;;548.95;32.42;;;7.00;99.90;;;;;;4996014;28;20053;-80
2022/12/23 06:46:09;;;;;;;499.27;32.85;;;7.00;99.90;;;;;;4995896;28;20053;-81
2022/12/23 06:48:35;;;;;;;528.95;32.95;;;6.90;99.90;;;;;;5012169;28;20085;-80
2022/12/23 06:51:00;;;;;;;569.35;34.63;;;6.90;99.90;;;;;;5012458;28;20551;-80
2022/12/23 06:53:26;;;;;;;473.00;31.55;;;6.90;99.90;;;;;;4995887;28;20046;-80
2022/12/23 06:56:00;;;;;;;453.52;28.88;;;6.90;99.90;;;;;;4995602;28;20345;-80
2022/12/23 06:58:25;;;;;;;472.60;30.25;;;6.90;99.90;;;;;;4995948;28;20113;-81
2022/12/23 07:00:51;;;;;;;469.80;30.13;;;6.90;99.90;;;;;;4995809;28;20046;-80
2022/12/23 07:03:17;;;;;;;438.13;30.02;;;7.00;99.90;;;;;;5012237;28;20041;-80
2022/12/23 07:05:46;;;;;;;425.65;30.15;;;7.00;99.90;;;;;;4995715;28;20384;-81
2022/12/23 07:08:12;;;;;;;394.95;28.10;;;6.90;99.90;;;;;;4995706;28;20061;-81
2022/12/23 07:10:38;;;;;;;378.40;25.83;;;6.90;99.90;;;;;;4995692;28;20045;-81
2022/12/23 07:13:04;;;;;;;339.25;26.15;;;6.90;99.90;;;;;;5012013;28;20136;-81
2022/12/23 07:15:29;;;;;;;312.40;24.25;;;6.90;99.90;;;;;;4995593;28;20400;-79
2022/12/23 07:17:55;;;;;;;324.05;24.20;;;6.90;99.90;;;;;;4994968;28;20093;-81
2022/12/23 07:20:21;;;;;;;347.98;25.58;;;6.90;99.90;;;;;;4995938;28;20054;-80
2022/12/23 07:22:49;;;;;;;308.33;23.58;;;6.90;99.90;;;;;;4996449;28;20049;-80
2022/12/23 07:25:15;;;;;;;321.75;26.30;;;6.90;99.90;;;;;;5002122;28;20049;-80
2022/12/23 07:27:41;;;;;;;258.40;21.58;;;6.90;99.90;;;;;;5017997;28;20046;-80
2022/12/23 07:30:07;;;;;;;438.77;29.83;;;6.90;99.90;;;;;;5001630;28;20396;-80
2022/12/23 07:32:33;;;;;;;359.45;25.20;;;6.90;99.90;;;;;;5001559;28;20516;-80
2022/12/23 07:34:59;;;;;;;331.67;24.27;;;6.90;99.90;;;;;;5001184;28;20103;-80
2022/12/23 07:37:24;;;;;;;316.77;25.95;;;6.90;99.90;;;;;;5001392;28;20042;-80
2022/12/23 07:39:50;;;;;;;408.98;28.65;;;6.90;99.90;;;;;;4985164;28;20057;-81
2022/12/23 07:42:16;;;;;;;375.02;26.05;;;7.00;99.90;;;;;;5017759;28;20053;-80
2022/12/23 07:44:41;;;;;;;402.52;27.90;;;7.00;99.90;;;;;;5001265;28;20057;-79
2022/12/23 07:47:07;;;;;;;433.63;30.35;;;7.00;99.90;;;;;;5017479;28;20108;-80
2022/12/23 07:49:33;;;;;;;388.38;26.67;;;7.00;99.90;;;;;;5000945;28;20038;-80
2022/12/23 07:51:59;;;;;;;419.00;28.13;;;7.00;99.90;;;;;;5001083;28;20464;-80
2022/12/23 07:54:24;;;;;;;387.30;26.63;;;7.00;99.90;;;;;;5018516;28;20481;-80
2022/12/23 07:56:50;;;;;;;403.52;30.65;;;7.00;99.90;;;;;;5017667;28;20084;-80
2022/12/23 07:59:16;;;;;;;250.95;24.98;;;7.10;99.90;;;;;;5001864;28;20054;-81
2022/12/23 08:01:41;;;;;;;353.65;26.00;;;7.10;99.90;;;;;;4969301;28;20042;-80
2022/12/23 08:04:07;;;;;;;226.63;24.88;;;7.10;99.90;;;;;;5001875;28;20073;-79
2022/12/23 08:06:36;;;;;;;197.65;24.73;;;7.20;99.90;;;;;;5018189;28;20057;-80
2022/12/23 08:09:02;;;;;;;269.17;26.05;;;7.10;99.90;;;;;;4985479;28;20221;-80
2022/12/23 08:11:27;;;;;;;320.60;26.52;;;7.10;99.90;;;;;;5018158;28;20391;-80
2022/12/23 08:13:53;;;;;;;245.90;24.92;;;7.10;99.90;;;;;;5001539;28;20125;-80
2022/12/23 08:16:19;;;;;;;232.63;22.85;;;7.20;99.90;;;;;;5017510;28;20071;-80
2022/12/23 08:18:45;;;;;;;208.60;22.92;;;7.10;99.90;;;;;;5004730;28;20060;-79
2022/12/23 08:21:12;;;;;;;211.13;22.55;;;7.10;99.90;;;;;;5005064;28;20041;-80
2022/12/23 08:23:38;;;;;;;113.50;18.77;;;7.10;99.90;;;;;;5004963;28;20480;-80
2022/12/23 08:26:09;;;;;;;141.00;21.00;;;7.10;99.90;;;;;;5004835;28;20042;-80
2022/12/23 08:28:37;;;;;;;132.38;21.05;;;7.10;99.90;;;;;;5004923;28;20455;-80
2022/12/23 08:31:11;;;;;;;135.98;21.92;;;7.20;99.90;;;;;;5004839;28;20048;-80
2022/12/23 08:33:38;;;;;;;232.73;24.70;;;7.20;99.90;;;;;;5004538;28;20053;-80
2022/12/23 08:36:06;;;;;;;285.85;24.85;;;7.20;99.90;;;;;;5018067;28;20085;-80
2022/12/23 08:38:32;;;;;;;292.73;25.42;;;7.20;99.90;;;;;;5018290;28;20107;-80
2022/12/23 08:40:58;;;;;;;157.40;22.73;;;7.20;99.90;;;;;;5017833;28;20051;-80
2022/12/23 08:43:24;;;;;;;425.60;28.75;;;7.20;99.90;;;;;;5017771;28;20041;-79
2022/12/23 08:45:50;;;;;;;501.23;33.47;;;7.20;99.90;;;;;;5000933;28;20077;-79
2022/12/23 08:48:16;;;;;;;382.23;27.50;;;7.10;99.90;;;;;;4985516;28;20057;-80
2022/12/23 08:50:44;;;;;;;103.30;16.67;;;7.00;99.90;;;;;;4985425;28;20045;-80
2022/12/23 08:53:10;;;;;;;318.30;24.40;;;6.90;99.90;;;;;;5017415;28;20042;-80
2022/12/23 08:55:42;;;;;;;344.60;22.95;;;7.00;99.90;;;;;;5001027;28;20045;-80
2022/12/23 08:58:09;;;;;;;380.20;23.63;;;6.90;99.90;;;;;;5017369;28;20484;-81
2022/12/23 09:00:36;;;;;;;295.92;19.75;;;6.90;99.90;;;;;;4985210;28;20099;-80
2022/12/23 09:03:02;;;;;;;407.58;23.90;;;6.90;99.90;;;;;;5017497;28;20057;-81
2022/12/23 09:05:28;;;;;;;425.58;22.73;;;6.80;99.90;;;;;;5017455;28;20079;-80
2022/12/23 09:07:54;;;;;;;154.82;14.02;;;6.80;99.90;;;;;;4984692;28;20128;-80
2022/12/23 09:10:20;;;;;;;178.05;14.82;;;6.70;99.90;;;;;;5017527;28;20064;-81
2022/12/23 09:12:45;;;;;;;296.17;22.17;;;6.70;99.90;;;;;;4968740;28;20052;-80
2022/12/23 09:15:11;;;;;;;336.98;24.27;;;6.70;99.90;;;;;;5017047;28;20184;-81
2022/12/23 09:17:37;;;;;;;254.82;21.00;;;6.70;99.90;;;;;;5004387;28;20105;-81
2022/12/23 09:20:03;;;;;;;157.15;18.67;;;6.80;99.90;;;;;;5013721;28;20050;-80
2022/12/23 09:22:32;;;;;;;94.13;17.90;;;6.90;99.90;;;;;;4997598;28;20049;-80
2022/12/23 09:24:58;;;;;;;151.98;21.38;;;7.00;99.90;;;;;;4965158;28;20049;-80
2022/12/23 09:27:24;;;;;;;104.40;20.75;;;7.10;99.90;;;;;;4997396;28;20045;-80
2022/12/23 09:29:50;;;;;;;110.43;20.70;;;7.20;99.90;;;;;;4981365;28;20412;-80
2022/12/23 09:32:16;;;;;;;116.55;22.02;;;7.30;99.90;;;;;;4981051;28;20049;-80
2022/12/23 09:34:41;;;;;;;146.38;21.33;;;7.30;99.90;;;;;;4980799;28;20057;-80
2022/12/23 09:37:07;;;;;;;472.15;32.08;;;7.40;99.90;;;;;;4948741;28;20136;-80
2022/12/23 09:39:33;;;;;;;318.17;23.17;;;7.30;99.90;;;;;;4981258;28;20092;-80
2022/12/23 09:42:10;;;;;;;331.48;24.02;;;7.30;99.90;;;;;;4964677;28;20056;-79
2022/12/23 09:45:15;;;;;;;221.10;19.80;;;7.30;99.90;;;;;;4981263;28;20045;-79
2022/12/23 09:47:43;;;;;;;431.38;28.38;;;7.30;99.90;;;;;;4979534;28;20058;-80
2022/12/23 09:50:24;;;;;;;318.33;23.48;;;7.40;99.90;;;;;;4980981;28;20057;-80
2022/12/23 09:53:07;;;;;;;302.55;24.23;;;7.40;99.90;;;;;;4997488;28;20468;-79
2022/12/23 09:55:54;;;;;;;358.60;27.50;;;7.40;99.90;;;;;;5013179;28;20057;-80
2022/12/23 09:58:31;;;;;;;315.50;25.40;;;7.50;99.90;;;;;;4997125;28;20045;-80
2022/12/23 10:01:15;;;;;;;310.88;27.38;;;7.60;99.90;;;;;;4980840;28;20053;-79
2022/12/23 10:04:02;;;;;;;310.80;28.63;;;7.60;99.90;;;;;;4980866;28;20042;-80
2022/12/23 10:06:29;;;;;;;299.20;26.08;;;7.70;99.90;;;;;;4997017;28;20057;-80
2022/12/23 10:09:01;;;;;;;185.95;21.77;;;7.70;99.90;;;;;;4980756;28;20496;-81
2022/12/23 10:11:38;;;;;;;186.10;21.85;;;7.80;99.90;;;;;;4980764;28;20069;-80
2022/12/23 10:14:23;;;;;;;112.63;19.60;;;7.90;99.90;;;;;;4996535;28;20496;-80
2022/12/23 10:16:56;;;;;;;149.93;18.08;;;8.00;99.90;;;;;;4980751;28;20053;-81
2022/12/23 10:19:27;;;;;;;130.35;18.65;;;8.00;99.90;;;;;;4996632;28;20046;-80
2022/12/23 10:21:53;;;;;;;109.18;17.25;;;8.00;99.90;;;;;;5013080;28;20492;-80
2022/12/23 10:24:25;;;;;;;108.88;17.35;;;8.10;99.90;;;;;;5012894;28;20072;-80
2022/12/23 10:27:00;;;;;;;;;;;8.10;99.90;;;;;;5013595;28;20056;-80
2022/12/23 10:29:30;;;;;;;86.80;16.70;;;8.10;99.90;;;;;;4996090;28;20461;-80
2022/12/23 10:32:23;;;;;;;99.20;17.75;;;8.20;99.90;;;;;;4996687;28;20500;-80
2022/12/23 10:35:23;;;;;;;89.93;18.08;;;8.20;99.90;;;;;;4996452;28;20052;-81
2022/12/23 10:38:06;;;;;;;89.85;17.08;;;8.30;99.90;;;;;;5012922;28;20056;-80
2022/12/23 10:40:48;;;;;;;57.50;16.67;;;8.30;99.90;;;;;;5012778;28;20050;-80
2022/12/23 10:43:13;;;;;;;;;;;8.40;99.90;;;;;;4996352;28;20505;-80
2022/12/23 10:46:20;;;;;;;69.63;17.45;;;8.40;99.90;;;;;;4995950;28;19922;-80
2022/12/23 10:49:21;;;;;;;71.15;19.02;;;8.40;99.90;;;;;;4917940;29;20546;-80
2022/12/23 10:51:56;;;;;;;80.97;19.13;;;8.40;99.90;;;;;;4946701;28;20393;-80
2022/12/23 10:54:33;;;;;;;77.45;20.83;;;8.50;99.90;;;;;;4996098;28;20045;-80
2022/12/23 10:57:01;;;;;;;77.75;22.50;;;8.50;99.90;;;;;;4980360;28;20049;-80
2022/12/23 10:59:32;;;;;;;88.65;23.48;;;8.60;99.90;;;;;;4995183;28;20399;-80
2022/12/23 11:02:04;;;;;;;83.45;22.23;;;8.60;99.90;;;;;;4996293;28;20053;-81
2022/12/23 11:04:35;;;;;;;90.18;24.73;;;8.70;99.90;;;;;;4996067;28;20054;-81
2022/12/23 11:07:02;;;;;;;100.03;25.50;;;8.60;99.90;;;;;;4996276;28;20468;-80
2022/12/23 11:09:37;;;;;;;93.35;26.27;;;8.70;99.90;;;;;;5011948;28;20046;-80
2022/12/23 11:12:06;;;;;;;95.80;26.27;;;8.70;99.90;;;;;;5012651;28;20069;-80
2022/12/23 11:14:35;;;;;;;81.90;27.40;;;8.70;99.90;;;;;;4996117;28;20388;-84
2022/12/23 11:17:01;;;;;;;66.80;23.20;;;8.70;99.90;;;;;;4995616;28;20069;-80
2022/12/23 11:19:27;;;;;;;64.18;21.17;;;8.70;99.90;;;;;;4995804;28;20058;-81
2022/12/23 11:21:57;;;;;;;62.03;20.90;;;8.70;99.90;;;;;;4989346;28;20503;-81
2022/12/23 11:24:25;;;;;;;60.58;19.55;;;8.60;99.90;;;;;;4984612;28;20065;-81
2022/12/23 11:27:01;;;;;;;72.25;21.58;;;8.70;99.90;;;;;;4974503;28;20051;-81
2022/12/23 11:29:42;;;;;;;55.40;20.02;;;8.70;99.90;;;;;;4979114;28;20061;-81
2022/12/23 11:32:21;;;;;;;49.83;18.70;;;8.70;99.90;;;;;;4995876;28;20511;-80
2022/12/23 11:34:49;;;;;;;56.15;20.10;;;8.80;99.90;;;;;;4977704;28;20060;-81
2022/12/23 11:37:35;;;;;;;63.25;21.33;;;8.80;99.90;;;;;;4979111;28;20038;-80
2022/12/23 11:40:05;;;;;;;62.35;20.38;;;8.80;99.90;;;;;;4979798;28;20053;-81
2022/12/23 11:42:33;;;;;;;60.90;21.17;;;8.80;99.90;;;;;;4995498;28;20046;-80
2022/12/23 11:44:59;;;;;;;70.78;24.30;;;8.80;99.90;;;;;;4995646;28;20054;-81
2022/12/23 11:47:33;;;;;;;65.30;24.52;;;8.90;99.90;;;;;;5012020;28;20048;-81
2022/12/23 11:50:02;;;;;;;68.60;23.73;;;8.80;99.90;;;;;;4994184;28;20050;-81
2022/12/23 11:52:30;;;;;;;64.38;21.75;;;8.80;99.90;;;;;;4979468;28;20049;-81
2022/12/23 11:54:58;;;;;;;65.07;21.70;;;8.80;99.90;;;;;;4995687;28;20145;-81
2022/12/23 11:57:39;;;;;;;63.58;21.02;;;8.80;99.90;;;;;;4995514;28;20588;-84
2022/12/23 12:00:16;;;;;;;61.97;23.10;;;8.80;99.90;;;;;;4979570;28;20539;-82
2022/12/23 12:02:44;;;;;;;69.95;26.13;;;8.90;99.90;;;;;;4959151;28;20048;-80
2022/12/23 12:05:21;;;;;;;73.25;27.42;;;8.90;99.90;;;;;;4959817;28;20050;-82
2022/12/23 12:07:48;;;;;;;64.15;25.00;;;9.00;99.90;;;;;;4975979;28;20053;-82
2022/12/23 12:10:21;;;;;;;79.32;27.90;;;9.00;99.90;;;;;;4946622;28;20085;-81
2022/12/23 12:12:54;;;;;;;63.47;26.50;;;9.00;99.90;;;;;;4963715;28;20143;-81
2022/12/23 12:15:32;;;;;;;66.93;26.35;;;8.90;99.90;;;;;;4963524;28;20112;-82
2022/12/23 12:18:00;;;;;;;68.70;24.33;;;9.00;99.90;;;;;;4976365;28;20152;-81
2022/12/23 12:20:40;;;;;;;64.20;22.65;;;8.90;99.90;;;;;;4999273;28;20116;-82
2022/12/23 12:23:24;;;;;;;60.80;22.52;;;8.90;99.90;;;;;;4998734;28;20045;-82
2022/12/23 12:26:13;;;;;;;61.60;22.40;;;8.90;99.90;;;;;;4983020;28;20049;-81
2022/12/23 12:28:45;;;;;;;71.50;23.88;;;8.90;99.90;;;;;;4974580;28;20144;-82
2022/12/23 12:31:28;;;;;;;64.18;22.67;;;9.10;99.90;;;;;;4983207;28;20111;-82
2022/12/23 12:33:59;;;;;;;62.58;21.45;;;9.00;99.90;;;;;;4983115;28;20073;-82
2022/12/23 12:36:53;;;;;;;61.28;22.23;;;8.90;99.90;;;;;;4998605;28;20046;-82
2022/12/23 12:39:27;;;;;;;60.63;20.92;;;8.90;99.90;;;;;;4982812;28;20089;-82
2022/12/23 12:42:01;;;;;;;58.92;21.25;;;8.90;99.90;;;;;;4982811;28;20081;-81
2022/12/23 12:45:12;;;;;;;58.92;20.20;;;8.90;99.90;;;;;;4982637;28;20069;-82
2022/12/23 12:47:43;;;;;;;51.42;19.42;;;8.30;99.90;;;;;;4955676;28;20064;-82
2022/12/23 12:50:20;;;;;;;58.08;20.30;;;8.90;99.90;;;;;;4982742;28;20100;-82
2022/12/23 12:52:48;;;;;;;52.00;19.48;;;8.90;99.90;;;;;;4998753;28;20547;-82
2022/12/23 12:55:38;;;;;;;58.10;19.13;;;8.90;99.90;;;;;;4982370;28;20048;-82
2022/12/23 12:58:17;;;;;;;52.63;18.73;;;8.90;99.90;;;;;;4982760;28;20124;-81
2022/12/23 13:01:05;;;;;;;47.80;16.55;;;8.80;99.90;;;;;;4982317;28;20053;-82
2022/12/23 13:04:00;;;;;;;49.55;16.98;;;8.80;99.90;;;;;;4982268;28;20058;-82
2022/12/23 13:06:50;;;;;;;44.95;16.52;;;8.80;99.90;;;;;;4982483;28;20063;-82
2022/12/23 13:09:25;;;;;;;43.92;15.48;;;8.80;99.90;;;;;;4982408;28;20173;-82
2022/12/23 13:12:29;;;;;;;44.50;15.15;;;8.80;99.90;;;;;;4982008;28;20046;-82
2022/12/23 13:15:04;;;;;;;45.72;14.80;;;8.80;99.90;;;;;;4938750;29;20059;-82
2022/12/23 13:17:37;;;;;;;45.90;14.70;;;8.80;99.90;;;;;;4922534;29;20066;-83
2022/12/23 13:20:44;;;;;;;48.35;14.70;;;8.80;99.90;;;;;;4946029;28;20069;-82